Time;durP1;ratioP1;P1;durP2;ratioP2;P2;SDS_P1;SDS_P2;PMS_P1;PMS_P2;Temp;Humidity;BMP_temperature;BMP_pressure;BME280_temperature;BME280_humidity;BME280_pressure;Samples;Min_cycle;Max_cycle;Signal;HPM_P1;HPM_P2
2022/03/13 00:00:51;;;;;;;53.65;21.27;;;;;;;;;;8301609;28;20049;-77
2022/03/13 00:04:56;;;;;;;56.08;20.85;;;;;;;;;;8302325;28;20046;-77
2022/03/13 00:08:59;;;;;;;61.20;21.10;;;;;;;;;;8302836;28;20052;-77
2022/03/13 00:13:04;;;;;;;59.40;19.38;;;;;;;;;;8301355;28;20050;-77
2022/03/13 00:17:07;;;;;;;55.83;20.50;;;;;;;;;;8301308;28;20049;-79
2022/03/13 00:21:12;;;;;;;56.22;20.85;;;;;;;;;;8304775;28;20409;-78
2022/03/13 00:25:14;;;;;;;59.05;20.63;;;;;;;;;;8333773;28;20440;-77
2022/03/13 00:29:17;;;;;;;55.28;19.13;;;;;;;;;;8331998;28;20413;-78
2022/03/13 00:33:20;;;;;;;59.13;19.65;;;;;;;;;;8333470;28;20049;-78
2022/03/13 00:37:24;;;;;;;56.45;20.10;;;;;;;;;;8333420;28;20046;-78
2022/03/13 00:41:27;;;;;;;59.08;22.83;;;;;;;;;;8323291;28;20038;-78
2022/03/13 00:45:30;;;;;;;71.63;24.27;;;;;;;;;;8300556;28;20057;-77
2022/03/13 00:49:32;;;;;;;54.28;19.98;;;;;;;;;;8300356;28;20418;-77
2022/03/13 00:53:38;;;;;;;58.30;21.63;;;;;;;;;;8303137;28;20052;-77
2022/03/13 00:57:42;;;;;;;65.35;24.02;;;;;;;;;;8333313;28;20405;-77
2022/03/13 01:01:45;;;;;;;54.10;21.35;;;;;;;;;;8332720;28;20046;-77
2022/03/13 01:05:47;;;;;;;62.85;21.08;;;;;;;;;;8333131;28;20049;-77
2022/03/13 01:09:51;;;;;;;47.85;19.08;;;;;;;;;;8303851;28;20045;-77
2022/03/13 01:13:55;;;;;;;50.55;18.05;;;;;;;;;;8325446;28;20068;-77
2022/03/13 01:17:58;;;;;;;51.60;17.75;;;;;;;;;;8332258;28;20430;-78
2022/03/13 01:22:00;;;;;;;43.45;18.23;;;;;;;;;;8332057;28;20045;-77
2022/03/13 01:26:37;;;;;;;50.15;19.00;;;;;;;;;;8308731;28;20136;-77
2022/03/13 01:30:40;;;;;;;54.90;17.85;;;;;;;;;;8299125;28;20046;-77
2022/03/13 01:34:46;;;;;;;49.17;17.42;;;;;;;;;;8298727;28;20046;-77
2022/03/13 01:38:48;;;;;;;53.25;18.50;;;;;;;;;;8300335;28;20046;-77
2022/03/13 01:42:55;;;;;;;42.85;15.98;;;;;;;;;;8299164;28;20112;-77
2022/03/13 01:46:57;;;;;;;44.22;18.98;;;;;;;;;;8298725;28;20075;-77
2022/03/13 01:51:00;;;;;;;47.22;17.10;;;;;;;;;;8297803;28;20049;-77
2022/03/13 01:55:03;;;;;;;60.60;19.00;;;;;;;;;;8296540;28;20049;-76
2022/03/13 01:59:09;;;;;;;47.72;17.63;;;;;;;;;;8296585;28;20308;-77
2022/03/13 02:03:12;;;;;;;49.60;19.83;;;;;;;;;;8296003;28;20046;-78
2022/03/13 02:07:14;;;;;;;54.67;19.45;;;;;;;;;;8297919;28;20052;-79
2022/03/13 02:11:19;;;;;;;51.15;18.58;;;;;;;;;;8297237;28;20053;-79
2022/03/13 02:15:29;;;;;;;50.85;17.70;;;;;;;;;;8280490;28;20053;-79
2022/03/13 02:19:32;;;;;;;47.33;18.98;;;;;;;;;;8294081;28;20049;-78
2022/03/13 02:23:37;;;;;;;44.03;14.43;;;;;;;;;;8298821;28;20056;-78
2022/03/13 02:27:39;;;;;;;50.88;16.00;;;;;;;;;;8300044;28;20542;-79
2022/03/13 02:31:43;;;;;;;50.25;18.38;;;;;;;;;;8297813;28;20069;-78
2022/03/13 02:35:51;;;;;;;50.63;17.95;;;;;;;;;;8283930;28;20622;-77
2022/03/13 02:39:55;;;;;;;48.78;17.67;;;;;;;;;;8274633;28;20054;-78
2022/03/13 02:43:59;;;;;;;45.40;17.75;;;;;;;;;;8270343;28;20137;-78
2022/03/13 02:48:03;;;;;;;44.45;18.17;;;;;;;;;;8296749;28;20050;-78
2022/03/13 02:52:07;;;;;;;50.22;18.60;;;;;;;;;;8284881;28;20038;-78
2022/03/13 02:56:12;;;;;;;46.17;18.35;;;;;;;;;;8265247;28;20486;-78
2022/03/13 03:00:16;;;;;;;47.47;17.67;;;;;;;;;;8265395;28;20050;-77
2022/03/13 03:04:24;;;;;;;56.28;17.95;;;;;;;;;;8265676;28;20051;-77
2022/03/13 03:08:26;;;;;;;60.40;18.25;;;;;;;;;;8265575;28;20126;-77
2022/03/13 03:12:30;;;;;;;44.65;17.45;;;;;;;;;;8290315;28;20060;-78
2022/03/13 03:16:33;;;;;;;35.17;14.57;;;;;;;;;;8296978;28;20060;-77
2022/03/13 03:20:36;;;;;;;37.90;15.27;;;;;;;;;;8297057;28;20046;-77
2022/03/13 03:24:38;;;;;;;36.70;16.83;;;;;;;;;;8295761;28;20137;-77
2022/03/13 03:28:42;;;;;;;36.17;14.85;;;;;;;;;;8296833;28;20046;-77
2022/03/13 03:32:44;;;;;;;37.45;14.32;;;;;;;;;;8296422;28;20050;-77
2022/03/13 03:36:49;;;;;;;45.72;15.07;;;;;;;;;;8300642;28;20421;-77
2022/03/13 03:40:51;;;;;;;42.50;17.33;;;;;;;;;;8283091;28;20061;-77
2022/03/13 03:44:55;;;;;;;36.75;16.02;;;;;;;;;;8269924;28;20068;-77
2022/03/13 03:48:58;;;;;;;48.38;17.65;;;;;;;;;;8269822;28;20121;-77
2022/03/13 03:53:00;;;;;;;40.72;15.55;;;;;;;;;;8287611;28;20053;-77
2022/03/13 03:57:03;;;;;;;29.60;12.00;;;;;;;;;;8302376;28;20049;-77
2022/03/13 04:01:07;;;;;;;33.28;12.95;;;;;;;;;;8301871;28;20045;-77
2022/03/13 04:05:10;;;;;;;34.30;14.18;;;;;;;;;;8301640;28;20046;-78
2022/03/13 04:09:13;;;;;;;29.02;11.98;;;;;;;;;;8299622;28;20053;-77
2022/03/13 04:13:16;;;;;;;25.85;10.32;;;;;;;;;;8301900;28;20543;-77
2022/03/13 04:17:20;;;;;;;38.08;15.05;;;;;;;;;;8301608;28;20482;-77
2022/03/13 04:21:23;;;;;;;34.20;13.43;;;;;;;;;;8296658;28;20046;-78
2022/03/13 04:25:27;;;;;;;41.83;14.98;;;;;;;;;;8267470;28;20046;-78
2022/03/13 04:29:29;;;;;;;37.63;14.07;;;;;;;;;;8275398;28;20042;-78
2022/03/13 04:33:34;;;;;;;38.97;13.93;;;;;;;;;;8306366;28;20062;-77
2022/03/13 04:37:37;;;;;;;36.72;15.95;;;;;;;;;;8333432;28;20091;-77
2022/03/13 04:41:39;;;;;;;38.35;14.05;;;;;;;;;;8333472;28;20042;-77
2022/03/13 04:45:42;;;;;;;29.42;11.82;;;;;;;;;;8332416;28;20060;-77
2022/03/13 04:49:46;;;;;;;33.83;12.80;;;;;;;;;;8333177;28;20049;-78
2022/03/13 04:53:48;;;;;;;35.85;14.57;;;;;;;;;;8307888;28;20060;-77
2022/03/13 04:57:51;;;;;;;30.80;11.77;;;;;;;;;;8300242;28;20045;-77
2022/03/13 05:01:53;;;;;;;37.22;15.63;;;;;;;;;;8300116;28;20046;-77
2022/03/13 05:05:58;;;;;;;50.22;16.10;;;;;;;;;;8300964;28;20053;-78
2022/03/13 05:10:00;;;;;;;31.77;12.75;;;;;;;;;;8299753;28;20050;-77
2022/03/13 05:14:03;;;;;;;40.13;13.23;;;;;;;;;;8299667;28;20092;-77
2022/03/13 05:18:05;;;;;;;41.20;14.32;;;;;;;;;;8299436;28;20073;-77
2022/03/13 05:22:09;;;;;;;37.03;14.80;;;;;;;;;;8329423;28;20060;-77
2022/03/13 05:26:12;;;;;;;29.75;12.23;;;;;;;;;;8332070;28;20042;-78
2022/03/13 05:30:15;;;;;;;28.67;12.60;;;;;;;;;;8331860;28;20041;-78
2022/03/13 05:34:17;;;;;;;41.72;14.27;;;;;;;;;;8331035;28;20053;-78
2022/03/13 05:38:21;;;;;;;37.80;13.30;;;;;;;;;;8331556;28;20049;-77
2022/03/13 05:42:24;;;;;;;45.15;18.27;;;;;;;;;;8331002;28;20041;-77
2022/03/13 05:46:27;;;;;;;63.33;24.80;;;;;;;;;;8331553;28;20412;-78
2022/03/13 05:50:30;;;;;;;60.40;23.58;;;;;;;;;;8320663;28;20120;-77
2022/03/13 05:54:34;;;;;;;39.78;16.13;;;;;;;;;;8302964;28;20049;-77
2022/03/13 05:58:37;;;;;;;42.80;17.08;;;;;;;;;;8311674;28;20111;-78
2022/03/13 06:02:40;;;;;;;38.00;14.43;;;;;;;;;;8321114;28;20387;-77
2022/03/13 06:06:44;;;;;;;44.03;19.05;;;;;;;;;;8288783;28;20041;-78
2022/03/13 06:10:51;;;;;;;46.08;17.73;;;;;;;;;;8284404;28;20049;-79
2022/03/13 06:14:54;;;;;;;41.60;13.88;;;;;;;;;;8320971;28;20080;-77
2022/03/13 06:18:57;;;;;;;37.03;15.15;;;;;;;;;;8295898;28;20048;-77
2022/03/13 06:23:01;;;;;;;35.88;14.38;;;;;;;;;;8265636;28;20050;-79
2022/03/13 06:27:08;;;;;;;40.95;17.38;;;;;;;;;;8317226;28;20045;-78
2022/03/13 06:31:16;;;;;;;60.75;25.17;;;;;;;;;;8327447;28;20050;-78
2022/03/13 06:35:20;;;;;;;53.75;21.25;;;;;;;;;;8300392;28;20065;-77
2022/03/13 06:39:23;;;;;;;58.80;23.42;;;;;;;;;;8308405;28;20049;-77
2022/03/13 06:43:28;;;;;;;68.32;23.98;;;;;;;;;;8296076;28;20108;-76
2022/03/13 06:47:30;;;;;;;46.45;18.65;;;;;;;;;;8297477;28;20115;-77
2022/03/13 06:51:38;;;;;;;46.28;21.73;;;;;;;;;;8284121;28;20790;-77
2022/03/13 06:55:42;;;;;;;63.50;26.83;;;;;;;;;;8297805;28;20073;-74
2022/03/13 06:59:51;;;;;;;56.15;26.05;;;;;;;;;;8296888;28;20521;-82
2022/03/13 07:03:56;;;;;;;73.93;35.22;;;;;;;;;;8296015;28;20046;-77
2022/03/13 07:08:02;;;;;;;40.95;19.40;;;;;;;;;;8328593;28;20052;-75
2022/03/13 07:12:11;;;;;;;35.85;16.83;;;;;;;;;;8323597;28;20048;-75
2022/03/13 07:16:19;;;;;;;80.72;38.03;;;;;;;;;;8336315;28;20048;-76
2022/03/13 07:20:25;;;;;;;74.18;31.35;;;;;;;;;;8312138;28;20401;-74
2022/03/13 07:24:38;;;;;;;40.05;20.67;;;;;;;;;;8299755;28;20042;-75
2022/03/13 07:28:43;;;;;;;36.38;20.45;;;;;;;;;;8331456;28;20128;-80
2022/03/13 07:32:57;;;;;;;39.50;21.80;;;;;;;;;;8306349;28;20048;-75
2022/03/13 07:37:06;;;;;;;48.42;25.67;;;;;;;;;;8294606;28;20141;-80
2022/03/13 07:41:17;;;;;;;47.38;25.40;;;;;;;;;;8298029;28;20037;-79
2022/03/13 07:45:20;;;;;;;35.67;20.63;;;;;;;;;;8280250;28;20050;-77
2022/03/13 07:49:25;;;;;;;34.67;20.25;;;;;;;;;;8270088;28;20076;-80
2022/03/13 07:53:30;;;;;;;33.20;22.35;;;;;;;;;;8269354;28;20116;-78
2022/03/13 07:57:38;;;;;;;22.92;15.05;;;;;;;;;;8269801;28;20050;-77
2022/03/13 08:01:44;;;;;;;17.98;11.15;;;;;;;;;;8269899;28;20046;-75
2022/03/13 08:05:52;;;;;;;21.23;11.65;;;;;;;;;;8261053;28;20479;-77
2022/03/13 08:09:58;;;;;;;17.13;9.95;;;;;;;;;;8257733;28;20450;-76
2022/03/13 08:14:01;;;;;;;16.88;10.07;;;;;;;;;;8266902;28;20042;-76
2022/03/13 08:18:09;;;;;;;16.88;9.23;;;;;;;;;;8267114;28;20105;-76
2022/03/13 08:22:29;;;;;;;14.90;9.38;;;;;;;;;;8267523;28;20046;-77
2022/03/13 08:26:43;;;;;;;16.02;8.95;;;;;;;;;;8236982;28;20502;-75
2022/03/13 08:31:17;;;;;;;18.80;10.43;;;;;;;;;;8249702;28;20080;-75
2022/03/13 08:35:45;;;;;;;15.23;9.85;;;;;;;;;;8273029;28;20471;-77
2022/03/13 08:40:13;;;;;;;16.35;9.88;;;;;;;;;;8266355;28;20042;-75
2022/03/13 08:44:30;;;;;;;16.77;10.50;;;;;;;;;;8264956;28;20042;-76
2022/03/13 08:48:46;;;;;;;19.92;14.73;;;;;;;;;;8262086;28;20057;-75
2022/03/13 08:53:01;;;;;;;15.52;9.05;;;;;;;;;;8264962;28;20494;-74
2022/03/13 08:57:33;;;;;;;18.45;15.38;;;;;;;;;;8264004;28;20046;-74
2022/03/13 09:02:05;;;;;;;13.93;8.43;;;;;;;;;;8262668;28;20062;-75
2022/03/13 09:06:25;;;;;;;15.43;10.05;;;;;;;;;;8260038;28;20042;-75
2022/03/13 09:10:49;;;;;;;14.63;8.85;;;;;;;;;;8260891;28;20105;-76
2022/03/13 09:15:48;;;;;;;45.10;21.90;;;;;;;;;;8260028;28;21309;-79
2022/03/13 09:19:56;;;;;;;17.65;10.43;;;;;;;;;;8273294;28;20045;-76
2022/03/13 09:29:18;;;;;;;16.73;10.77;;;;;;;;;;8262922;28;20074;-77
2022/03/13 09:33:22;;;;;;;14.52;8.25;;;;;;;;;;8281340;28;20065;-77
2022/03/13 09:37:26;;;;;;;11.88;7.70;;;;;;;;;;8279520;28;20046;-76
2022/03/13 09:41:30;;;;;;;15.45;8.73;;;;;;;;;;8293183;28;20054;-77
2022/03/13 09:45:34;;;;;;;14.85;8.65;;;;;;;;;;8292422;28;20406;-78
2022/03/13 09:49:41;;;;;;;11.65;7.70;;;;;;;;;;8294610;28;20457;-76
2022/03/13 09:53:46;;;;;;;14.07;7.63;;;;;;;;;;8290613;28;20105;-78
2022/03/13 09:57:51;;;;;;;13.32;8.70;;;;;;;;;;8319147;28;20132;-78
2022/03/13 10:01:54;;;;;;;13.05;7.85;;;;;;;;;;8294286;28;20046;-77
2022/03/13 10:06:01;;;;;;;8.57;5.30;;;;;;;;;;8293289;28;21795;-78
2022/03/13 10:10:14;;;;;;;13.80;7.63;;;;;;;;;;8302928;28;20046;-78
2022/03/13 10:14:17;;;;;;;8.30;5.18;;;;;;;;;;8300155;28;20045;-77
2022/03/13 10:18:30;;;;;;;17.63;12.70;;;;;;;;;;8308775;28;20049;-78
2022/03/13 10:22:35;;;;;;;11.63;6.60;;;;;;;;;;8300884;28;20045;-77
2022/03/13 10:26:38;;;;;;;11.90;5.88;;;;;;;;;;8291721;28;20108;-75
2022/03/13 10:30:41;;;;;;;14.73;7.35;;;;;;;;;;8267294;28;20042;-77
2022/03/13 10:34:56;;;;;;;11.15;6.88;;;;;;;;;;8295146;28;20116;-81
2022/03/13 10:39:02;;;;;;;10.45;5.13;;;;;;;;;;8277130;28;20054;-77
2022/03/13 10:43:08;;;;;;;8.95;4.65;;;;;;;;;;8282570;28;20057;-77
2022/03/13 10:47:11;;;;;;;12.13;6.32;;;;;;;;;;8295882;28;20074;-79
2022/03/13 10:51:15;;;;;;;10.18;5.50;;;;;;;;;;8298989;28;20046;-81
2022/03/13 10:55:22;;;;;;;10.00;5.05;;;;;;;;;;8284290;28;20049;-77
2022/03/13 10:59:26;;;;;;;12.88;7.15;;;;;;;;;;8291056;28;20041;-78
2022/03/13 11:03:29;;;;;;;13.45;7.22;;;;;;;;;;8308435;28;20054;-78
2022/03/13 11:07:33;;;;;;;17.95;7.47;;;;;;;;;;8299835;28;20045;-74
2022/03/13 11:11:44;;;;;;;13.45;7.22;;;;;;;;;;8301846;28;20041;-74
2022/03/13 11:15:54;;;;;;;14.80;8.32;;;;;;;;;;8300910;28;20590;-74
2022/03/13 11:20:00;;;;;;;16.55;8.20;;;;;;;;;;8303328;28;20050;-75
2022/03/13 11:24:06;;;;;;;15.73;8.32;;;;;;;;;;8301856;28;20049;-74
2022/03/13 11:28:11;;;;;;;14.15;8.65;;;;;;;;;;8301140;28;20061;-75
2022/03/13 11:33:02;;;;;;;17.77;8.75;;;;;;;;;;8283524;28;20061;-75
2022/03/13 11:37:32;;;;;;;15.70;8.35;;;;;;;;;;8281340;28;20050;-74
2022/03/13 11:41:44;;;;;;;15.75;8.82;;;;;;;;;;8293182;28;20132;-74
2022/03/13 11:46:07;;;;;;;15.55;8.50;;;;;;;;;;8302171;28;20089;-75
2022/03/13 11:50:18;;;;;;;18.88;9.73;;;;;;;;;;8295887;28;20050;-77
2022/03/13 11:55:04;;;;;;;16.60;9.10;;;;;;;;;;8282463;28;20045;-77
2022/03/13 11:59:29;;;;;;;18.38;9.55;;;;;;;;;;8300969;28;20042;-78
2022/03/13 12:03:36;;;;;;;16.27;9.05;;;;;;;;;;8289878;28;20080;-81
2022/03/13 12:07:56;;;;;;;23.08;11.60;;;;;;;;;;8289909;28;20038;-73
2022/03/13 12:16:34;;;;;;;17.08;9.70;;;;;;;;;;8290605;28;20037;-76
2022/03/13 12:21:25;;;;;;;18.00;9.90;;;;;;;;;;8300961;28;20046;-73
2022/03/13 12:25:47;;;;;;;20.13;11.10;;;;;;;;;;8299474;28;20409;-72
2022/03/13 12:29:56;;;;;;;16.90;10.05;;;;;;;;;;8312434;28;20682;-76
2022/03/13 12:34:03;;;;;;;17.67;10.35;;;;;;;;;;8288259;28;20574;-72
2022/03/13 12:38:06;;;;;;;19.13;11.40;;;;;;;;;;8312941;28;20081;-74
2022/03/13 12:42:11;;;;;;;16.95;11.48;;;;;;;;;;8272219;28;20050;-71
2022/03/13 12:46:17;;;;;;;17.30;11.02;;;;;;;;;;8277460;28;20049;-73
2022/03/13 12:50:22;;;;;;;18.85;11.80;;;;;;;;;;8291406;28;20452;-73
2022/03/13 12:54:29;;;;;;;20.70;12.75;;;;;;;;;;8294204;28;20050;-72
2022/03/13 12:58:44;;;;;;;27.00;15.30;;;;;;;;;;8298959;28;20507;-71
2022/03/13 13:02:58;;;;;;;22.13;13.52;;;;;;;;;;8292269;28;20053;-72
2022/03/13 13:07:03;;;;;;;21.33;14.13;;;;;;;;;;8290077;28;20042;-72
2022/03/13 13:11:06;;;;;;;24.92;14.68;;;;;;;;;;8287154;28;20462;-72
2022/03/13 13:15:13;;;;;;;22.17;12.88;;;;;;;;;;8289987;28;20393;-72
2022/03/13 13:19:16;;;;;;;23.77;14.32;;;;;;;;;;8299857;28;20046;-72
2022/03/13 13:23:19;;;;;;;19.90;12.93;;;;;;;;;;8275730;28;20050;-72
2022/03/13 13:27:34;;;;;;;29.02;16.90;;;;;;;;;;8278028;28;20090;-72
2022/03/13 13:31:39;;;;;;;22.42;12.93;;;;;;;;;;8293133;28;20061;-72
2022/03/13 13:35:46;;;;;;;20.55;12.68;;;;;;;;;;8270567;28;20058;-73
2022/03/13 13:39:49;;;;;;;24.48;14.40;;;;;;;;;;8323425;28;20440;-72
2022/03/13 13:43:52;;;;;;;22.95;14.73;;;;;;;;;;8287598;28;20045;-76
2022/03/13 13:48:18;;;;;;;25.23;14.70;;;;;;;;;;8287543;28;20093;-77
2022/03/13 13:52:29;;;;;;;29.17;17.98;;;;;;;;;;8295415;28;20057;-73
2022/03/13 13:56:39;;;;;;;25.60;15.25;;;;;;;;;;8294586;28;20050;-72
2022/03/13 14:00:43;;;;;;;28.13;18.83;;;;;;;;;;8293216;28;20054;-73
2022/03/13 14:04:52;;;;;;;23.73;14.43;;;;;;;;;;8289247;28;20689;-72
2022/03/13 14:09:00;;;;;;;27.15;14.98;;;;;;;;;;8274786;28;20466;-76
2022/03/13 14:13:06;;;;;;;25.92;15.45;;;;;;;;;;8292332;28;20490;-74
2022/03/13 14:17:10;;;;;;;25.10;14.45;;;;;;;;;;8293384;28;20116;-73
2022/03/13 14:21:15;;;;;;;25.65;14.15;;;;;;;;;;8273350;28;20101;-73
2022/03/13 14:25:19;;;;;;;25.63;15.07;;;;;;;;;;8289570;28;20042;-73
2022/03/13 14:29:22;;;;;;;27.52;14.85;;;;;;;;;;8293746;28;20048;-73
2022/03/13 14:33:25;;;;;;;28.17;14.75;;;;;;;;;;8292727;28;20061;-72
2022/03/13 14:37:30;;;;;;;26.30;15.52;;;;;;;;;;8296454;28;20092;-74
2022/03/13 14:41:35;;;;;;;32.58;19.38;;;;;;;;;;8295993;28;20092;-77
2022/03/13 14:45:39;;;;;;;41.28;23.10;;;;;;;;;;8293418;28;20050;-73
2022/03/13 14:49:43;;;;;;;42.58;23.23;;;;;;;;;;8291626;28;20061;-73
2022/03/13 14:53:47;;;;;;;35.92;19.35;;;;;;;;;;8285390;28;20038;-73
2022/03/13 14:57:51;;;;;;;43.55;24.33;;;;;;;;;;8284969;28;20050;-74
2022/03/13 15:01:55;;;;;;;43.20;23.02;;;;;;;;;;8289102;28;20698;-73
2022/03/13 15:05:59;;;;;;;33.45;18.05;;;;;;;;;;8293933;28;20046;-73
2022/03/13 15:10:11;;;;;;;30.48;17.45;;;;;;;;;;8302025;28;20043;-78
2022/03/13 15:14:20;;;;;;;;;;;;;;;;;;8290733;28;20061;-75
2022/03/13 15:18:29;;;;;;;33.13;18.90;;;;;;;;;;8292557;28;19929;-73
2022/03/13 15:22:33;;;;;;;37.30;20.65;;;;;;;;;;8293488;28;20049;-74
2022/03/13 15:26:38;;;;;;;38.42;23.90;;;;;;;;;;8291884;28;20548;-75
2022/03/13 15:30:41;;;;;;;43.42;25.13;;;;;;;;;;8271444;28;20097;-73
2022/03/13 15:34:50;;;;;;;36.20;21.40;;;;;;;;;;8264884;28;20051;-77
2022/03/13 15:38:59;;;;;;;74.80;33.88;;;;;;;;;;8296507;28;20177;-73
2022/03/13 15:43:04;;;;;;;35.45;18.27;;;;;;;;;;8314308;28;20045;-73
2022/03/13 15:47:21;;;;;;;40.97;20.92;;;;;;;;;;8317655;28;20379;-73
2022/03/13 15:51:44;;;;;;;53.47;26.98;;;;;;;;;;8333656;28;20049;-73
2022/03/13 15:55:57;;;;;;;56.55;31.17;;;;;;;;;;8301527;28;20050;-72
2022/03/13 16:00:05;;;;;;;38.83;20.70;;;;;;;;;;8287002;28;20046;-72
2022/03/13 16:04:08;;;;;;;47.40;24.92;;;;;;;;;;8279334;28;20491;-73
2022/03/13 16:08:11;;;;;;;52.72;30.73;;;;;;;;;;8272027;28;20134;-72
2022/03/13 16:12:24;;;;;;;62.72;39.42;;;;;;;;;;8277153;28;20054;-72
2022/03/13 16:16:29;;;;;;;68.25;35.92;;;;;;;;;;8280287;28;20406;-72
2022/03/13 16:20:35;;;;;;;46.63;24.20;;;;;;;;;;8279501;28;20050;-75
2022/03/13 16:24:39;;;;;;;69.50;34.40;;;;;;;;;;8283371;28;20046;-75
2022/03/13 16:28:52;;;;;;;36.00;17.80;;;;;;;;;;8293061;28;20045;-77
2022/03/13 16:33:01;;;;;;;38.35;19.13;;;;;;;;;;8291686;28;20128;-79
2022/03/13 16:37:05;;;;;;;34.35;19.15;;;;;;;;;;8295554;28;20053;-75
2022/03/13 16:41:11;;;;;;;36.80;18.42;;;;;;;;;;8293262;28;20068;-73
2022/03/13 16:45:22;;;;;;;42.70;21.23;;;;;;;;;;8292426;28;20091;-74
2022/03/13 16:49:30;;;;;;;40.72;18.60;;;;;;;;;;8295378;28;20061;-75
2022/03/13 16:53:40;;;;;;;36.33;19.45;;;;;;;;;;8295008;28;20042;-76
2022/03/13 16:58:05;;;;;;;33.03;16.05;;;;;;;;;;8289020;28;20137;-77
2022/03/13 17:02:37;;;;;;;31.38;15.35;;;;;;;;;;8267445;28;20053;-76
2022/03/13 17:06:47;;;;;;;38.35;15.77;;;;;;;;;;8281719;28;20069;-74
2022/03/13 17:10:51;;;;;;;33.70;15.70;;;;;;;;;;8274089;28;20042;-76
2022/03/13 17:14:57;;;;;;;30.55;15.13;;;;;;;;;;8276305;28;20481;-73
2022/03/13 17:19:00;;;;;;;41.53;18.08;;;;;;;;;;8293580;28;20053;-74
2022/03/13 17:23:05;;;;;;;42.50;20.75;;;;;;;;;;8286963;28;20069;-77
2022/03/13 17:27:08;;;;;;;56.05;23.40;;;;;;;;;;8285639;28;20097;-75
2022/03/13 17:31:20;;;;;;;117.68;36.22;;;;;;;;;;8295608;28;20061;-74
2022/03/13 17:35:27;;;;;;;73.28;28.60;;;;;;;;;;8278656;28;20132;-73
2022/03/13 17:39:32;;;;;;;65.25;25.92;;;;;;;;;;8288891;28;20089;-75
2022/03/13 17:43:36;;;;;;;40.92;18.58;;;;;;;;;;8273624;28;20049;-76
2022/03/13 17:47:39;;;;;;;56.42;25.95;;;;;;;;;;8272140;28;20498;-78
2022/03/13 17:51:42;;;;;;;50.13;24.02;;;;;;;;;;8287256;28;20081;-77
2022/03/13 17:55:47;;;;;;;59.08;24.17;;;;;;;;;;8283806;28;20053;-73
2022/03/13 17:59:53;;;;;;;43.72;21.48;;;;;;;;;;8282435;28;20096;-73
2022/03/13 18:03:56;;;;;;;41.97;17.35;;;;;;;;;;8294545;28;20117;-74
2022/03/13 18:08:00;;;;;;;56.72;23.20;;;;;;;;;;8288910;28;20054;-73
2022/03/13 18:12:06;;;;;;;40.50;20.70;;;;;;;;;;8276295;28;20088;-73
2022/03/13 18:16:09;;;;;;;65.50;27.73;;;;;;;;;;8276395;28;20096;-73
2022/03/13 18:20:12;;;;;;;39.92;17.05;;;;;;;;;;8268874;28;20072;-76
2022/03/13 18:24:16;;;;;;;33.13;15.55;;;;;;;;;;8271519;28;20060;-76
2022/03/13 18:28:20;;;;;;;34.38;16.42;;;;;;;;;;8289924;28;20042;-77
2022/03/13 18:32:23;;;;;;;39.47;16.88;;;;;;;;;;8297857;28;20042;-75
2022/03/13 18:36:27;;;;;;;85.43;23.83;;;;;;;;;;8274350;28;20073;-74
2022/03/13 18:47:08;;;;;;;30.38;14.18;;;;;;;;;;8179886;29;20094;-74
2022/03/13 18:51:21;;;;;;;32.42;16.38;;;;;;;;;;8163035;29;20050;-73
2022/03/13 18:55:40;;;;;;;49.50;23.65;;;;;;;;;;8177850;28;20154;-75
2022/03/13 18:59:46;;;;;;;36.10;15.88;;;;;;;;;;8177237;28;20134;-75
2022/03/13 19:03:50;;;;;;;37.33;14.88;;;;;;;;;;8178135;28;20039;-75
2022/03/13 19:07:55;;;;;;;30.25;13.77;;;;;;;;;;8187926;28;20139;-78
2022/03/13 19:12:10;;;;;;;49.22;22.85;;;;;;;;;;8187238;28;20597;-74
2022/03/13 19:16:16;;;;;;;46.95;21.30;;;;;;;;;;8182955;28;20175;-77
2022/03/13 19:20:44;;;;;;;33.25;15.45;;;;;;;;;;8182114;28;20092;-74
2022/03/13 19:24:51;;;;;;;30.50;14.45;;;;;;;;;;8176539;28;20059;-75
2022/03/13 19:28:56;;;;;;;36.58;13.85;;;;;;;;;;8183005;28;20134;-74
2022/03/13 19:33:06;;;;;;;28.80;13.90;;;;;;;;;;8173950;29;20040;-73
2022/03/13 19:37:17;;;;;;;36.70;16.35;;;;;;;;;;8170597;29;20070;-74
2022/03/13 19:41:24;;;;;;;30.15;15.93;;;;;;;;;;8170268;29;20528;-76
2022/03/13 19:45:28;;;;;;;32.70;15.77;;;;;;;;;;8187716;28;20502;-75
2022/03/13 19:49:38;;;;;;;45.38;18.35;;;;;;;;;;8172729;28;20128;-76
2022/03/13 19:53:51;;;;;;;33.22;14.75;;;;;;;;;;8190334;28;20051;-76
2022/03/13 19:57:58;;;;;;;31.30;14.75;;;;;;;;;;8185919;28;20194;-77
2022/03/13 20:02:04;;;;;;;30.23;13.63;;;;;;;;;;8181710;28;20058;-74
2022/03/13 20:06:11;;;;;;;33.97;13.35;;;;;;;;;;8186250;28;20183;-76
2022/03/13 20:10:15;;;;;;;31.23;13.00;;;;;;;;;;8169966;29;20056;-73
2022/03/13 20:14:20;;;;;;;33.28;14.75;;;;;;;;;;8180720;28;20052;-73
2022/03/13 20:18:23;;;;;;;34.03;13.27;;;;;;;;;;8183519;28;20568;-73
2022/03/13 20:22:26;;;;;;;34.55;14.13;;;;;;;;;;8169630;29;20443;-73
2022/03/13 20:26:29;;;;;;;30.48;13.40;;;;;;;;;;8169451;29;20134;-76
2022/03/13 20:30:34;;;;;;;31.63;12.82;;;;;;;;;;8169384;29;20096;-76
2022/03/13 20:34:38;;;;;;;32.10;13.35;;;;;;;;;;8169191;29;20063;-76
2022/03/13 20:38:42;;;;;;;34.22;12.73;;;;;;;;;;8168769;29;20047;-76
2022/03/13 20:42:45;;;;;;;31.00;13.82;;;;;;;;;;8169015;29;20425;-73
2022/03/13 20:46:50;;;;;;;30.10;13.15;;;;;;;;;;8168835;29;20059;-74
2022/03/13 20:50:53;;;;;;;31.02;12.63;;;;;;;;;;8168603;29;20519;-76
2022/03/13 20:54:57;;;;;;;27.75;13.52;;;;;;;;;;8168529;29;20059;-75
2022/03/13 20:59:00;;;;;;;36.03;16.45;;;;;;;;;;8168351;29;20051;-77
2022/03/13 21:03:06;;;;;;;29.27;15.45;;;;;;;;;;8168363;29;20087;-74
2022/03/13 21:07:09;;;;;;;25.52;12.80;;;;;;;;;;8257093;28;20093;-74
2022/03/13 21:11:20;;;;;;;25.60;10.77;;;;;;;;;;8267522;28;20077;-74
2022/03/13 21:15:23;;;;;;;30.80;12.75;;;;;;;;;;8267867;28;20058;-76
2022/03/13 21:19:28;;;;;;;36.03;15.02;;;;;;;;;;8266888;28;20058;-74
2022/03/13 21:23:32;;;;;;;30.73;13.40;;;;;;;;;;8267570;28;20125;-75
2022/03/13 21:27:36;;;;;;;27.35;11.60;;;;;;;;;;8267422;28;20050;-77
2022/03/13 21:31:41;;;;;;;31.48;12.18;;;;;;;;;;8267023;28;20064;-77
2022/03/13 21:35:48;;;;;;;32.13;12.90;;;;;;;;;;8266660;28;20082;-78
2022/03/13 21:39:51;;;;;;;33.67;14.63;;;;;;;;;;8266685;28;20059;-76
2022/03/13 21:43:54;;;;;;;34.85;13.52;;;;;;;;;;8266652;28;20133;-75
2022/03/13 21:47:57;;;;;;;29.20;12.93;;;;;;;;;;8266534;28;20050;-75
2022/03/13 21:52:02;;;;;;;30.67;13.52;;;;;;;;;;8266345;28;20050;-75
2022/03/13 21:56:05;;;;;;;27.30;13.13;;;;;;;;;;8266578;28;20471;-77
2022/03/13 22:00:10;;;;;;;26.90;11.80;;;;;;;;;;8266005;28;20050;-75
2022/03/13 22:04:13;;;;;;;26.20;11.98;;;;;;;;;;8266173;28;20105;-76
2022/03/13 22:08:17;;;;;;;30.00;13.88;;;;;;;;;;8266352;28;20129;-76
2022/03/13 22:12:26;;;;;;;31.95;13.55;;;;;;;;;;8289565;28;20053;-74
2022/03/13 22:16:29;;;;;;;30.77;13.52;;;;;;;;;;8298166;28;20046;-74
2022/03/13 22:20:32;;;;;;;29.15;12.73;;;;;;;;;;8298067;28;20379;-74
2022/03/13 22:24:36;;;;;;;31.60;13.65;;;;;;;;;;8297994;28;20053;-74
2022/03/13 22:28:39;;;;;;;32.08;12.18;;;;;;;;;;8298443;28;20049;-76
2022/03/13 22:32:42;;;;;;;28.70;13.13;;;;;;;;;;8297988;28;20052;-76
2022/03/13 22:36:45;;;;;;;26.02;12.63;;;;;;;;;;8297893;28;20076;-77
2022/03/13 22:40:49;;;;;;;29.83;12.32;;;;;;;;;;8305961;28;20543;-75
2022/03/13 22:44:52;;;;;;;37.97;14.18;;;;;;;;;;8266897;28;20054;-74
2022/03/13 22:48:55;;;;;;;36.58;13.75;;;;;;;;;;8275848;28;20052;-74
2022/03/13 22:52:58;;;;;;;30.30;14.32;;;;;;;;;;8275572;28;20042;-74
2022/03/13 22:57:03;;;;;;;39.42;13.20;;;;;;;;;;8275781;28;20046;-74
2022/03/13 23:01:07;;;;;;;30.38;12.38;;;;;;;;;;8275700;28;20046;-74
2022/03/13 23:05:11;;;;;;;32.85;13.93;;;;;;;;;;8275575;28;20102;-77
2022/03/13 23:09:13;;;;;;;30.88;13.05;;;;;;;;;;8276044;28;20547;-74
2022/03/13 23:13:18;;;;;;;29.67;13.57;;;;;;;;;;8276120;28;20487;-75
2022/03/13 23:17:22;;;;;;;29.05;11.93;;;;;;;;;;8275496;28;20042;-74
2022/03/13 23:21:26;;;;;;;30.52;13.45;;;;;;;;;;8294052;28;20093;-77
2022/03/13 23:25:30;;;;;;;32.13;12.80;;;;;;;;;;8308381;28;20050;-75
2022/03/13 23:29:34;;;;;;;37.20;13.55;;;;;;;;;;8308250;28;20454;-77
2022/03/13 23:33:36;;;;;;;36.92;13.98;;;;;;;;;;8307610;28;20069;-75
2022/03/13 23:37:40;;;;;;;39.75;12.88;;;;;;;;;;8307715;28;20049;-76
2022/03/13 23:41:43;;;;;;;33.25;12.88;;;;;;;;;;8307556;28;20046;-74
2022/03/13 23:45:48;;;;;;;27.75;12.27;;;;;;;;;;8307554;28;20046;-75
2022/03/13 23:49:50;;;;;;;30.58;12.52;;;;;;;;;;8306066;28;20524;-74
2022/03/13 23:53:53;;;;;;;24.45;12.70;;;;;;;;;;8301876;28;20053;-74
2022/03/13 23:57:55;;;;;;;28.25;12.73;;;;;;;;;;8285097;28;20093;-75
